Time;durP1;ratioP1;P1;durP2;ratioP2;P2;SDS_P1;SDS_P2;PMS_P1;PMS_P2;Temp;Humidity;BMP_temperature;BMP_pressure;BME280_temperature;BME280_humidity;BME280_pressure;Samples;Min_cycle;Max_cycle;Signal;HPM_P1;HPM_P2
2023/11/22 00:00:31;;;;;;;;;;;6.20;79.00;;;;;;5069758;28;19928;-68
2023/11/22 00:03:04;;;;;;;;;;;6.10;79.10;;;;;;5070833;28;19971;-67
2023/11/22 00:05:37;;;;;;;;;;;6.10;79.30;;;;;;5066920;28;19939;-68
2023/11/22 00:08:12;;;;;;;;;;;6.10;79.30;;;;;;5071065;28;19928;-68
2023/11/22 00:10:45;;;;;;;;;;;6.10;79.40;;;;;;5068528;28;19928;-67
2023/11/22 00:13:18;;;;;;;;;;;6.00;79.40;;;;;;5071628;28;19931;-67
2023/11/22 00:15:51;;;;;;;;;;;5.90;79.50;;;;;;5070912;28;19939;-68
2023/11/22 00:18:26;;;;;;;;;;;5.90;79.60;;;;;;5070861;28;19928;-67
2023/11/22 00:20:59;;;;;;;;;;;5.90;79.80;;;;;;5071468;28;19943;-67
2023/11/22 00:23:33;;;;;;;;;;;5.90;79.70;;;;;;5051050;28;19925;-68
2023/11/22 00:26:11;;;;;;;;;;;5.90;79.90;;;;;;5068622;28;20335;-67
2023/11/22 00:28:52;;;;;;;;;;;5.80;79.90;;;;;;5052697;28;19940;-69
2023/11/22 00:31:28;;;;;;;;;;;5.70;79.90;;;;;;5050999;28;19974;-69
2023/11/22 00:34:01;;;;;;;;;;;5.70;79.90;;;;;;5052931;28;20382;-65
2023/11/22 00:36:34;;;;;;;;;;;5.70;79.90;;;;;;5053048;28;19932;-66
2023/11/22 00:39:09;;;;;;;;;;;5.70;80.00;;;;;;5070376;28;19985;-66
2023/11/22 00:41:42;;;;;;;;;;;5.70;79.80;;;;;;5069426;28;19925;-65
2023/11/22 00:44:15;;;;;;;;;;;5.70;79.70;;;;;;5053052;28;19947;-65
2023/11/22 00:46:50;;;;;;;;;;;5.60;80.00;;;;;;5071103;28;19934;-66
2023/11/22 00:49:24;;;;;;;;;;;5.70;79.90;;;;;;5071471;28;19962;-65
2023/11/22 00:51:58;;;;;;;;;;;5.60;79.80;;;;;;5070541;28;19924;-65
2023/11/22 00:54:32;;;;;;;;;;;5.50;79.90;;;;;;5069769;28;19929;-65
2023/11/22 00:57:06;;;;;;;;;;;5.50;80.10;;;;;;5068721;28;19942;-65
2023/11/22 00:59:47;;;;;;;;;;;5.50;80.10;;;;;;5069799;28;19928;-65
2023/11/22 01:02:21;;;;;;;;;;;5.50;80.00;;;;;;5069962;28;20434;-66
2023/11/22 01:04:54;;;;;;;;;;;5.40;79.90;;;;;;5070903;28;19925;-64
2023/11/22 01:07:29;;;;;;;;;;;5.30;80.00;;;;;;5070273;28;19935;-66
2023/11/22 01:10:05;;;;;;;;;;;5.30;80.10;;;;;;5070950;28;19928;-66
2023/11/22 01:12:38;;;;;;;;;;;5.30;80.20;;;;;;5070303;28;19928;-65
2023/11/22 01:15:11;;;;;;;;;;;5.20;80.20;;;;;;5069879;28;19946;-65
2023/11/22 01:17:45;;;;;;;;;;;5.30;80.10;;;;;;5070582;28;20011;-66
2023/11/22 01:20:18;;;;;;;;;;;5.30;80.10;;;;;;5071107;28;19924;-66
2023/11/22 01:22:51;;;;;;;;;;;5.20;80.40;;;;;;5052385;28;20027;-65
2023/11/22 01:25:28;;;;;;;;;;;5.20;80.00;;;;;;5050467;28;19983;-66
2023/11/22 01:28:01;;;;;;;;;;;5.20;80.10;;;;;;5051966;28;19956;-66
2023/11/22 01:30:34;;;;;;;;;;;5.10;80.30;;;;;;5070988;28;19971;-65
2023/11/22 01:33:07;;;;;;;;;;;5.10;80.40;;;;;;5069412;28;19959;-65
2023/11/22 01:35:41;;;;;;;;;;;5.10;80.70;;;;;;5070305;28;19929;-65
2023/11/22 01:38:14;;;;;;;;;;;5.10;80.50;;;;;;5070552;28;19963;-66
2023/11/22 01:40:52;;;;;;;;;;;5.10;80.60;;;;;;5063506;28;19925;-66
2023/11/22 01:43:29;;;;;;;;;;;5.10;80.30;;;;;;5068409;28;19935;-74
2023/11/22 01:46:03;;;;;;;;;;;5.00;80.40;;;;;;5070579;28;19930;-73
2023/11/22 01:48:36;;;;;;;;;;;5.00;80.30;;;;;;5065270;28;19924;-73
2023/11/22 01:51:09;;;;;;;;;;;5.00;80.30;;;;;;5068230;28;19931;-74
2023/11/22 01:53:43;;;;;;;;;;;4.90;80.40;;;;;;5057969;28;19924;-74
2023/11/22 01:56:31;;;;;;;;;;;4.90;80.30;;;;;;5068725;28;19932;-73
2023/11/22 01:59:18;;;;;;;;;;;4.90;80.30;;;;;;5073342;28;20383;-74
2023/11/22 02:01:58;;;;;;;;;;;4.90;80.30;;;;;;5070470;28;19979;-76
2023/11/22 02:04:33;;;;;;;;;;;4.90;80.40;;;;;;5069327;28;19925;-75
2023/11/22 02:07:06;;;;;;;;;;;4.70;80.40;;;;;;5049162;28;20637;-74
2023/11/22 02:09:45;;;;;;;;;;;4.70;80.60;;;;;;5073425;28;20383;-75
2023/11/22 02:12:24;;;;;;;;;;;4.70;80.50;;;;;;5075560;28;21350;-74
2023/11/22 02:14:58;;;;;;;;;;;4.70;80.70;;;;;;5057651;28;19924;-74
2023/11/22 02:17:34;;;;;;;;;;;4.70;80.60;;;;;;5076461;28;19925;-73
2023/11/22 02:20:10;;;;;;;;;;;4.60;80.30;;;;;;5071059;28;20011;-74
2023/11/22 02:22:44;;;;;;;;;;;4.50;80.40;;;;;;5054525;28;19931;-75
2023/11/22 02:25:19;;;;;;;;;;;4.50;80.40;;;;;;5074220;28;19929;-74
2023/11/22 02:27:52;;;;;;;;;;;4.50;80.40;;;;;;5055872;28;19960;-74
2023/11/22 02:30:19;;;;;;;;;;;4.50;80.60;;;;;;5074679;28;20393;-75
2023/11/22 02:32:52;;;;;;;;;;;4.50;80.50;;;;;;5071663;28;19925;-72
2023/11/22 02:35:26;;;;;;;;;;;4.50;80.00;;;;;;5075231;28;19929;-73
2023/11/22 02:37:59;;;;;;;;;;;4.50;79.80;;;;;;5074850;28;19932;-73
2023/11/22 02:40:34;;;;;;;;;;;4.50;79.30;;;;;;5070786;28;20383;-74
2023/11/22 02:43:08;;;;;;;;;;;4.50;78.80;;;;;;5072747;28;19971;-74
2023/11/22 02:45:43;;;;;;;;;;;4.50;78.10;;;;;;5072396;28;19970;-73
2023/11/22 02:48:17;;;;;;;;;;;4.50;77.60;;;;;;5070460;28;19924;-73
2023/11/22 02:50:50;;;;;;;;;;;4.50;77.00;;;;;;5073641;28;20421;-74
2023/11/22 02:53:25;;;;;;;;;;;4.60;76.70;;;;;;5069938;28;19924;-65
2023/11/22 02:56:07;;;;;;;;;;;4.60;75.30;;;;;;5072490;28;19929;-65
2023/11/22 02:58:41;;;;;;;;;;;4.50;75.20;;;;;;5072387;28;19925;-64
2023/11/22 03:01:14;;;;;;;;;;;4.50;75.00;;;;;;5053587;28;19935;-65
2023/11/22 03:03:54;;;;;;;;;;;4.50;74.60;;;;;;5072978;28;19934;-65
2023/11/22 03:06:27;;;;;;;;;;;4.50;75.10;;;;;;5073380;28;20009;-64
2023/11/22 03:09:00;;;;;;;;;;;4.40;75.30;;;;;;5071872;28;19924;-65
2023/11/22 03:11:35;;;;;;;;;;;4.40;75.90;;;;;;5072704;28;20009;-65
2023/11/22 03:14:08;;;;;;;;;;;4.40;76.00;;;;;;5072840;28;19951;-65
2023/11/22 03:16:42;;;;;;;;;;;4.40;75.80;;;;;;5069398;28;19928;-64
2023/11/22 03:19:15;;;;;;;;;;;4.40;75.90;;;;;;5054471;28;19928;-64
2023/11/22 03:21:49;;;;;;;;;;;4.30;75.80;;;;;;5052265;28;20016;-66
2023/11/22 03:24:22;;;;;;;;;;;4.40;75.90;;;;;;5071780;28;19932;-65
2023/11/22 03:26:52;;;;;;;;;;;4.30;75.80;;;;;;5071284;28;19935;-64
2023/11/22 03:29:25;;;;;;;;;;;4.20;76.10;;;;;;5072209;28;20006;-64
2023/11/22 03:31:58;;;;;;;;;;;4.30;75.60;;;;;;5071863;28;19924;-64
2023/11/22 03:34:31;;;;;;;;;;;4.20;75.70;;;;;;5070695;28;19925;-67
2023/11/22 03:37:04;;;;;;;;;;;4.20;75.30;;;;;;5067891;28;19924;-65
2023/11/22 03:39:37;;;;;;;;;;;4.20;75.30;;;;;;5070823;28;19932;-65
2023/11/22 03:42:13;;;;;;;;;;;4.20;74.60;;;;;;5071868;28;19928;-66
2023/11/22 03:44:46;;;;;;;;;;;4.20;74.80;;;;;;5071163;28;19925;-65
2023/11/22 03:47:20;;;;;;;;;;;4.10;74.90;;;;;;5072140;28;19935;-66
2023/11/22 03:49:53;;;;;;;;;;;4.10;74.60;;;;;;5072547;28;19928;-66
2023/11/22 03:52:26;;;;;;;;;;;4.10;74.70;;;;;;5072118;28;19935;-64
2023/11/22 03:54:59;;;;;;;;;;;4.10;74.80;;;;;;5069625;28;19935;-65
2023/11/22 03:57:44;;;;;;;;;;;4.00;75.30;;;;;;5070503;28;20276;-65
2023/11/22 04:00:17;;;;;;;;;;;4.00;75.40;;;;;;5071758;28;19931;-62
2023/11/22 04:02:53;;;;;;;;;;;4.00;75.50;;;;;;5071619;28;19968;-65
2023/11/22 04:05:26;;;;;;;;;;;4.00;75.60;;;;;;5072789;28;19929;-74
2023/11/22 04:07:54;;;;;;;;;;;4.00;75.60;;;;;;5072545;28;19931;-73
2023/11/22 04:10:27;;;;;;;;;;;4.00;75.60;;;;;;5070989;28;21717;-73
2023/11/22 04:13:02;;;;;;;;;;;3.90;75.30;;;;;;5072900;28;19954;-72
2023/11/22 04:15:35;;;;;;;;;;;4.00;75.50;;;;;;5072514;28;19932;-72
2023/11/22 04:18:08;;;;;;;;;;;4.00;75.70;;;;;;5054153;28;20294;-74
2023/11/22 04:20:42;;;;;;;;;;;3.90;75.40;;;;;;5067899;28;19994;-73
2023/11/22 04:23:14;;;;;;;;;;;3.80;75.60;;;;;;5072218;28;19932;-73
2023/11/22 04:25:49;;;;;;;;;;;3.80;75.90;;;;;;5071162;28;19928;-72
2023/11/22 04:28:24;;;;;;;;;;;3.90;75.80;;;;;;5068075;28;19931;-74
2023/11/22 04:30:57;;;;;;;;;;;3.80;75.40;;;;;;5070360;28;19928;-73
2023/11/22 04:33:30;;;;;;;;;;;3.80;75.70;;;;;;5070993;28;19929;-74
2023/11/22 04:36:03;;;;;;;;;;;3.80;76.20;;;;;;5071694;28;20067;-74
2023/11/22 04:38:36;;;;;;;;;;;3.70;76.20;;;;;;5069576;28;19951;-73
2023/11/22 04:41:09;;;;;;;;;;;3.80;76.60;;;;;;5068873;28;19947;-73
2023/11/22 04:43:44;;;;;;;;;;;3.80;76.80;;;;;;5069366;28;19932;-74
2023/11/22 04:46:17;;;;;;;;;;;3.80;77.10;;;;;;5070048;28;19925;-73
2023/11/22 04:48:52;;;;;;;;;;;3.80;77.00;;;;;;5071817;28;19974;-73
2023/11/22 04:51:26;;;;;;;;;;;3.90;77.20;;;;;;5072201;28;19956;-74
2023/11/22 04:54:02;;;;;;;;;;;3.80;77.30;;;;;;5070225;28;19947;-75
2023/11/22 04:56:35;;;;;;;;;;;3.80;77.80;;;;;;5071479;28;19925;-73
2023/11/22 04:59:10;;;;;;;;;;;3.90;77.70;;;;;;5050970;28;20019;-73
2023/11/22 05:01:44;;;;;;;;;;;3.90;77.90;;;;;;5066677;28;19950;-75
2023/11/22 05:04:19;;;;;;;;;;;3.90;77.90;;;;;;5071469;28;19924;-73
2023/11/22 05:06:53;;;;;;;;;;;4.00;77.90;;;;;;5071391;28;19928;-74
2023/11/22 05:09:29;;;;;;;;;;;3.90;78.10;;;;;;5071022;28;20372;-74
2023/11/22 05:12:05;;;;;;;;;;;3.90;78.20;;;;;;5066609;28;20389;-73
2023/11/22 05:14:40;;;;;;;;;;;3.90;78.30;;;;;;5067745;28;20011;-65
2023/11/22 05:17:13;;;;;;;;;;;3.90;77.90;;;;;;5070585;28;19974;-64
2023/11/22 05:19:50;;;;;;;;;;;4.00;77.70;;;;;;5068803;28;20015;-64
2023/11/22 05:22:23;;;;;;;;;;;3.90;77.10;;;;;;5070666;28;19929;-65
2023/11/22 05:24:53;;;;;;;;;;;4.00;76.80;;;;;;5069502;28;19932;-65
2023/11/22 05:27:28;;;;;;;;;;;4.00;77.00;;;;;;5068878;28;19925;-65
2023/11/22 05:30:04;;;;;;;;;;;3.90;76.60;;;;;;5068229;28;19928;-64
2023/11/22 05:32:37;;;;;;;;;;;4.00;76.30;;;;;;5068888;28;19931;-65
2023/11/22 05:35:10;;;;;;;;;;;4.10;75.70;;;;;;5070640;28;19929;-65
2023/11/22 05:37:43;;;;;;;;;;;4.10;75.40;;;;;;5069825;28;20017;-65
2023/11/22 05:40:16;;;;;;;;;;;4.10;75.60;;;;;;5070866;28;20368;-64
2023/11/22 05:42:49;;;;;;;;;;;4.10;75.40;;;;;;5067618;28;19971;-66
2023/11/22 05:45:24;;;;;;;;;;;4.10;74.90;;;;;;5065906;28;19931;-64
2023/11/22 05:47:57;;;;;;;;;;;4.00;75.00;;;;;;5070663;28;19989;-64
2023/11/22 05:50:33;;;;;;;;;;;4.10;75.00;;;;;;5069666;28;19928;-64
2023/11/22 05:53:06;;;;;;;;;;;4.10;75.10;;;;;;5070671;28;19934;-64
2023/11/22 05:55:39;;;;;;;;;;;4.10;75.60;;;;;;5069873;28;19936;-64
2023/11/22 05:58:13;;;;;;;;;;;4.10;75.80;;;;;;5069498;28;19932;-66
2023/11/22 06:00:48;;;;;;;;;;;4.10;75.40;;;;;;5065093;28;19978;-64
2023/11/22 06:03:21;;;;;;;;;;;4.10;75.50;;;;;;5070967;28;19936;-65
2023/11/22 06:05:54;;;;;;;;;;;4.20;75.20;;;;;;5068500;28;19964;-65
2023/11/22 06:08:28;;;;;;;;;;;4.10;75.30;;;;;;5071686;28;19924;-64
2023/11/22 06:11:01;;;;;;;;;;;4.10;75.20;;;;;;5069827;28;19929;-64
2023/11/22 06:13:34;;;;;;;;;;;4.00;74.60;;;;;;5068801;28;19925;-66
2023/11/22 06:16:09;;;;;;;;;;;4.00;74.30;;;;;;5068267;28;19971;-66
2023/11/22 06:18:44;;;;;;;;;;;4.00;74.30;;;;;;5071321;28;20327;-65
2023/11/22 06:21:18;;;;;;;;;;;4.00;74.40;;;;;;5068168;28;20858;-64
2023/11/22 06:23:51;;;;;;;;;;;4.00;73.80;;;;;;5070238;28;20055;-65
2023/11/22 06:26:24;;;;;;;;;;;4.00;73.90;;;;;;5070168;28;20433;-66
2023/11/22 06:28:57;;;;;;;;;;;4.00;73.40;;;;;;5071725;28;19992;-65
2023/11/22 06:31:33;;;;;;;;;;;4.00;73.70;;;;;;5069712;28;19929;-65
2023/11/22 06:34:06;;;;;;;;;;;4.00;73.50;;;;;;5070292;28;20256;-65
2023/11/22 06:36:39;;;;;;;;;;;4.00;72.90;;;;;;5052776;28;20268;-65
2023/11/22 06:39:14;;;;;;;;;;;4.00;73.40;;;;;;5071896;28;19924;-65
2023/11/22 06:41:47;;;;;;;;;;;4.00;73.00;;;;;;5070760;28;19932;-65
2023/11/22 06:44:21;;;;;;;;;;;4.00;73.60;;;;;;5070442;28;20402;-65
2023/11/22 06:46:58;;;;;;;;;;;4.00;73.40;;;;;;5071942;28;19924;-67
2023/11/22 06:49:31;;;;;;;;;;;4.10;73.20;;;;;;5070813;28;20003;-66
2023/11/22 06:52:05;;;;;;;;;;;4.00;72.60;;;;;;5068509;28;19928;-65
2023/11/22 06:54:38;;;;;;;;;;;4.10;72.90;;;;;;5071326;28;20329;-66
2023/11/22 06:57:14;;;;;;;;;;;4.10;73.20;;;;;;5072314;28;19925;-65
2023/11/22 06:59:47;;;;;;;;;;;4.10;72.90;;;;;;5069252;28;19925;-64
2023/11/22 07:02:23;;;;;;;;;;;4.20;73.40;;;;;;5070478;28;19990;-65
2023/11/22 07:04:58;;;;;;;;;;;4.20;73.50;;;;;;5070910;28;19932;-65
2023/11/22 07:07:32;;;;;;;;;;;4.20;73.40;;;;;;5071333;28;19928;-67
2023/11/22 07:10:06;;;;;;;;;;;4.20;73.70;;;;;;5071862;28;20455;-65
2023/11/22 07:12:39;;;;;;;;;;;4.20;73.50;;;;;;5074585;28;20318;-64
2023/11/22 07:15:13;;;;;;;;;;;4.20;73.80;;;;;;5074303;28;19925;-65
2023/11/22 07:17:48;;;;;;;;;;;4.20;73.80;;;;;;5075338;28;19929;-66
2023/11/22 07:20:23;;;;;;;;;;;4.20;74.00;;;;;;5072384;28;19963;-65
2023/11/22 07:22:57;;;;;;;;;;;4.20;73.70;;;;;;5074970;28;20446;-66
2023/11/22 07:25:31;;;;;;;;;;;4.20;73.80;;;;;;5073502;28;19925;-65
2023/11/22 07:28:08;;;;;;;;;;;4.20;73.20;;;;;;5073513;28;19929;-65
2023/11/22 07:30:42;;;;;;;;;;;4.20;73.40;;;;;;5063032;28;19935;-65
2023/11/22 07:33:16;;;;;;;;;;;4.20;73.70;;;;;;5072101;28;19946;-67
2023/11/22 07:35:49;;;;;;;;;;;4.20;73.70;;;;;;5071229;28;19928;-68
2023/11/22 07:38:23;;;;;;;;;;;4.20;73.00;;;;;;5072834;28;19928;-68
2023/11/22 07:40:57;;;;;;;;;;;4.10;72.50;;;;;;5062775;28;19929;-68
2023/11/22 07:43:30;;;;;;;;;;;4.00;72.40;;;;;;5071892;28;19954;-67
2023/11/22 07:46:08;;;;;;;;;;;4.10;72.50;;;;;;5071514;28;19982;-67
2023/11/22 07:48:44;;;;;;;;;;;4.10;72.40;;;;;;5061561;28;19932;-68
2023/11/22 07:51:18;;;;;;;;;;;4.20;72.40;;;;;;5055130;28;20379;-67
2023/11/22 07:53:50;;;;;;;;;;;4.20;72.80;;;;;;5071522;28;19966;-67
2023/11/22 07:56:23;;;;;;;;;;;4.20;72.40;;;;;;5065118;28;19928;-67
2023/11/22 07:59:00;;;;;;;;;;;4.20;72.20;;;;;;5073045;28;20388;-68
2023/11/22 08:01:33;;;;;;;;;;;4.20;71.60;;;;;;5070798;28;19985;-67
2023/11/22 08:04:09;;;;;;;;;;;4.20;72.20;;;;;;5071132;28;19964;-68
2023/11/22 08:06:42;;;;;;;;;;;4.20;71.70;;;;;;5072826;28;19924;-66
2023/11/22 08:09:16;;;;;;;;;;;4.20;71.40;;;;;;5073168;28;19925;-67
2023/11/22 08:11:49;;;;;;;;;;;4.30;72.10;;;;;;5068976;28;19959;-69
2023/11/22 08:14:22;;;;;;;;;;;4.30;72.00;;;;;;5069928;28;19928;-68
2023/11/22 08:16:56;;;;;;;;;;;4.30;72.10;;;;;;5070049;28;20533;-69
2023/11/22 08:19:30;;;;;;;;;;;4.40;72.40;;;;;;5071266;28;19928;-68
2023/11/22 08:21:56;;;;;;;;;;;4.40;72.10;;;;;;5050619;28;19924;-67
2023/11/22 08:24:29;;;;;;;;;;;4.40;71.60;;;;;;5071618;28;19928;-68
2023/11/22 08:27:03;;;;;;;;;;;4.40;72.10;;;;;;5070385;28;19929;-68
2023/11/22 08:29:36;;;;;;;;;;;4.40;72.30;;;;;;5072646;28;19924;-69
2023/11/22 08:32:10;;;;;;;;;;;4.40;72.10;;;;;;5069668;28;19952;-69
2023/11/22 08:34:45;;;;;;;;;;;4.40;72.00;;;;;;5046830;28;19929;-68
2023/11/22 08:37:18;;;;;;;;;;;4.50;72.20;;;;;;5066434;28;19928;-68
2023/11/22 08:39:51;;;;;;;;;;;4.50;71.90;;;;;;5068223;28;19932;-68
2023/11/22 08:42:40;;;;;;;;;;;4.40;71.40;;;;;;5063195;28;20403;-69
2023/11/22 08:45:20;;;;;;;;;;;4.50;71.10;;;;;;5071686;28;19924;-70
2023/11/22 08:47:54;;;;;;;;;;;4.50;71.20;;;;;;5062480;28;19928;-68
2023/11/22 08:50:29;;;;;;;;;;;4.50;70.80;;;;;;5070001;28;19947;-69
2023/11/22 08:53:04;;;;;;;;;;;4.60;71.00;;;;;;5069592;28;19928;-68
2023/11/22 08:55:37;;;;;;;;;;;4.50;70.20;;;;;;5070390;28;19924;-69
2023/11/22 08:58:11;;;;;;;;;;;4.50;71.10;;;;;;5070014;28;19925;-68
2023/11/22 09:00:44;;;;;;;;;;;4.60;71.00;;;;;;5065742;28;19930;-68
2023/11/22 09:03:18;;;;;;;;;;;4.60;70.60;;;;;;5071239;28;19968;-68
2023/11/22 09:05:53;;;;;;;;;;;4.60;70.70;;;;;;5070433;28;19972;-69
2023/11/22 09:08:26;;;;;;;;;;;4.60;69.90;;;;;;5069799;28;20403;-68
2023/11/22 09:10:59;;;;;;;;;;;4.60;70.20;;;;;;5070710;28;19982;-69
2023/11/22 09:13:32;;;;;;;;;;;4.60;69.90;;;;;;5066501;28;19981;-69
2023/11/22 09:16:10;;;;;;;;;;;4.60;69.80;;;;;;5068214;28;19928;-69
2023/11/22 09:18:43;;;;;;;;;;;4.70;70.10;;;;;;5069941;28;19935;-69
2023/11/22 09:21:18;;;;;;;;;;;4.80;70.40;;;;;;5070287;28;20435;-69
2023/11/22 09:23:51;;;;;;;;;;;4.70;70.70;;;;;;5069621;28;19964;-69
2023/11/22 09:26:39;;;;;;;;;;;4.80;70.40;;;;;;5069959;28;19924;-69
2023/11/22 09:29:13;;;;;;;;;;;4.90;70.50;;;;;;5069321;28;19924;-68
2023/11/22 09:31:47;;;;;;;;;;;4.80;70.10;;;;;;5068933;28;19933;-68
2023/11/22 09:34:20;;;;;;;;;;;4.70;69.80;;;;;;5047142;28;20371;-68
2023/11/22 09:36:55;;;;;;;;;;;4.80;70.10;;;;;;5069630;28;19989;-69
2023/11/22 09:39:29;;;;;;;;;;;4.80;69.90;;;;;;5070551;28;20044;-68
2023/11/22 09:42:04;;;;;;;;;;;4.80;70.00;;;;;;5066391;28;19939;-68
2023/11/22 09:44:31;;;;;;;;;;;4.90;69.90;;;;;;5068830;28;19925;-69
2023/11/22 09:47:07;;;;;;;;;;;4.80;69.90;;;;;;5069714;28;20375;-68
2023/11/22 09:49:41;;;;;;;;;;;4.90;69.60;;;;;;5070692;28;19929;-68
2023/11/22 09:52:19;;;;;;;;;;;4.80;70.10;;;;;;5070471;28;20014;-69
2023/11/22 09:54:56;;;;;;;;;;;4.90;70.50;;;;;;5069731;28;19933;-68
2023/11/22 09:57:31;;;;;;;;;;;5.00;69.90;;;;;;5069667;28;19928;-68
2023/11/22 10:00:06;;;;;;;;;;;4.90;69.70;;;;;;5063983;28;19936;-67
2023/11/22 10:02:38;;;;;;;;;;;4.80;69.90;;;;;;5065380;28;20746;-68
2023/11/22 10:05:12;;;;;;;;;;;4.90;70.30;;;;;;5069310;28;20367;-69
2023/11/22 10:07:47;;;;;;;;;;;5.00;70.20;;;;;;5068560;28;20702;-69
2023/11/22 10:10:26;;;;;;;;;;;4.90;70.20;;;;;;5069443;28;19963;-69
2023/11/22 10:13:01;;;;;;;;;;;4.90;69.90;;;;;;5070011;28;19928;-67
2023/11/22 10:15:33;;;;;;;;;;;5.00;69.50;;;;;;5067055;28;20062;-68
2023/11/22 10:18:07;;;;;;;;;;;4.80;69.50;;;;;;5067408;28;19924;-69
2023/11/22 10:20:41;;;;;;;;;;;4.90;69.90;;;;;;5068116;28;19946;-68
2023/11/22 10:23:17;;;;;;;;;;;4.90;69.70;;;;;;5067743;28;19928;-69
2023/11/22 10:25:55;;;;;;;;;;;5.00;69.80;;;;;;5068152;28;19974;-68
2023/11/22 10:28:30;;;;;;;;;;;5.10;69.60;;;;;;5070483;28;19936;-67
2023/11/22 10:31:08;;;;;;;;;;;5.20;69.00;;;;;;5069267;28;19932;-67
2023/11/22 10:33:41;;;;;;;;;;;5.00;68.80;;;;;;5069971;28;19962;-67
2023/11/22 10:36:15;;;;;;;;;;;5.10;68.90;;;;;;5070103;28;19929;-67
2023/11/22 10:38:50;;;;;;;;;;;5.20;69.00;;;;;;5068534;28;19929;-67
2023/11/22 10:41:23;;;;;;;;;;;5.20;69.10;;;;;;5070185;28;19932;-67
2023/11/22 10:43:52;;;;;;;;;;;5.30;68.50;;;;;;5069086;28;19925;-69
2023/11/22 10:46:28;;;;;;;;;;;5.30;68.80;;;;;;5072675;28;19970;-68
2023/11/22 10:49:02;;;;;;;;;;;5.30;69.30;;;;;;5073045;28;19939;-68
2023/11/22 10:51:35;;;;;;;;;;;5.30;69.10;;;;;;5072764;28;19924;-68
2023/11/22 10:54:10;;;;;;;;;;;5.30;69.10;;;;;;5074771;28;20046;-69
2023/11/22 10:56:47;;;;;;;;;;;5.30;69.20;;;;;;5073169;28;19939;-68
2023/11/22 10:59:23;;;;;;;;;;;5.30;69.20;;;;;;5076554;28;19995;-67
2023/11/22 11:01:59;;;;;;;;;;;5.30;69.20;;;;;;5070687;28;19993;-68
2023/11/22 11:04:35;;;;;;;;;;;5.20;68.90;;;;;;5073123;28;19925;-67
2023/11/22 11:07:12;;;;;;;;;;;5.20;69.00;;;;;;5075665;28;20019;-66
2023/11/22 11:09:48;;;;;;;;;;;5.20;69.40;;;;;;5075797;28;20011;-66
2023/11/22 11:12:23;;;;;;;;;;;5.20;69.30;;;;;;5075608;28;19942;-66
2023/11/22 11:14:57;;;;;;;;;;;5.30;69.40;;;;;;5056663;28;19928;-67
2023/11/22 11:17:32;;;;;;;;;;;5.20;69.20;;;;;;5074352;28;19924;-68
2023/11/22 11:20:06;;;;;;;;;;;5.30;69.60;;;;;;5073384;28;20038;-68
2023/11/22 11:22:40;;;;;;;;;;;5.30;69.50;;;;;;5073260;28;20035;-67
2023/11/22 11:25:16;;;;;;;;;;;5.30;69.40;;;;;;5066634;28;19928;-67
2023/11/22 11:27:59;;;;;;;;;;;5.30;69.10;;;;;;5072278;28;19925;-66
2023/11/22 11:30:43;;;;;;;;;;;5.40;69.30;;;;;;5073635;28;19935;-68
2023/11/22 11:33:27;;;;;;;;;;;5.40;68.80;;;;;;5075070;28;19928;-68
2023/11/22 11:36:03;;;;;;;;;;;5.50;68.80;;;;;;5075789;28;19964;-68
2023/11/22 11:38:37;;;;;;;;;;;5.50;68.70;;;;;;5056164;28;19951;-67
2023/11/22 11:41:11;;;;;;;;;;;5.50;68.60;;;;;;5071960;28;19951;-67
2023/11/22 11:43:45;;;;;;;;;;;5.50;68.60;;;;;;5053952;28;19972;-67
2023/11/22 11:46:18;;;;;;;;;;;5.50;68.40;;;;;;5066991;28;19925;-67
2023/11/22 11:48:52;;;;;;;;;;;5.50;68.40;;;;;;5071586;28;20387;-68
2023/11/22 11:51:26;;;;;;;;;;;5.60;67.90;;;;;;5073159;28;19924;-68
2023/11/22 11:54:00;;;;;;;;;;;5.60;67.90;;;;;;5072952;28;20414;-68
2023/11/22 11:56:35;;;;;;;;;;;5.60;67.90;;;;;;5074195;28;19994;-67
2023/11/22 11:59:09;;;;;;;;;;;5.50;67.50;;;;;;5073331;28;19924;-68
2023/11/22 12:01:43;;;;;;;;;;;5.70;68.40;;;;;;5072780;28;19929;-67
2023/11/22 12:04:17;;;;;;;;;;;5.60;68.40;;;;;;5073156;28;19964;-67
2023/11/22 12:06:51;;;;;;;;;;;5.70;67.60;;;;;;5075469;28;19990;-67
2023/11/22 12:09:28;;;;;;;;;;;5.60;68.00;;;;;;5047977;28;19924;-67
2023/11/22 12:12:03;;;;;;;;;;;5.50;67.60;;;;;;5073575;28;19924;-67
2023/11/22 12:14:37;;;;;;;;;;;5.50;67.90;;;;;;5069940;28;20280;-67
2023/11/22 12:17:13;;;;;;;;;;;5.50;67.50;;;;;;5067132;28;19929;-67
2023/11/22 12:19:48;;;;;;;;;;;5.50;67.50;;;;;;5071708;28;19960;-68
2023/11/22 12:22:22;;;;;;;;;;;5.60;67.70;;;;;;5070772;28;19986;-68
2023/11/22 12:24:58;;;;;;;;;;;5.40;66.70;;;;;;5061814;28;19933;-72
2023/11/22 12:27:32;;;;;;;;;;;5.40;67.70;;;;;;5073881;28;19935;-74
2023/11/22 12:30:06;;;;;;;;;;;5.50;67.80;;;;;;5073474;28;19925;-73
2023/11/22 12:32:48;;;;;;;;;;;5.60;67.30;;;;;;5072043;28;19960;-73
2023/11/22 12:35:23;;;;;;;;;;;5.60;67.10;;;;;;5074509;28;19925;-73
2023/11/22 12:37:56;;;;;;;;;;;5.60;67.10;;;;;;5073572;28;20371;-73
2023/11/22 12:40:31;;;;;;;;;;;5.60;66.80;;;;;;5073407;28;19989;-73
2023/11/22 12:43:06;;;;;;;;;;;5.50;67.10;;;;;;5073059;28;19939;-73
2023/11/22 12:45:40;;;;;;;;;;;5.50;67.10;;;;;;5073260;28;19932;-72
2023/11/22 12:48:24;;;;;;;;;;;5.40;67.30;;;;;;5073473;28;19929;-73
2023/11/22 12:50:58;;;;;;;;;;;5.50;67.20;;;;;;5073481;28;20047;-74
2023/11/22 12:53:32;;;;;;;;;;;5.60;67.00;;;;;;5073458;28;19992;-73
2023/11/22 12:56:06;;;;;;;;;;;5.60;67.20;;;;;;5072171;28;19924;-73
2023/11/22 12:58:41;;;;;;;;;;;5.50;67.00;;;;;;5070671;28;20001;-72
2023/11/22 13:01:15;;;;;;;;;;;5.50;67.40;;;;;;5065978;28;19983;-75
2023/11/22 13:03:49;;;;;;;;;;;5.40;67.50;;;;;;5070717;28;19924;-73
2023/11/22 13:06:24;;;;;;;;;;;5.50;67.20;;;;;;5072250;28;19935;-73
2023/11/22 13:08:59;;;;;;;;;;;5.60;67.30;;;;;;5068932;28;19925;-74
2023/11/22 13:11:33;;;;;;;;;;;5.50;66.40;;;;;;5066631;28;19930;-73
2023/11/22 13:14:08;;;;;;;;;;;5.50;67.30;;;;;;5069675;28;19931;-74
2023/11/22 13:16:47;;;;;;;;;;;5.60;67.50;;;;;;5071500;28;20367;-73
2023/11/22 13:19:21;;;;;;;;;;;5.60;67.20;;;;;;5068587;28;19935;-72
2023/11/22 13:21:55;;;;;;;;;;;5.70;67.70;;;;;;5070410;28;19925;-74
2023/11/22 13:24:32;;;;;;;;;;;5.70;67.90;;;;;;5071743;28;19929;-73
2023/11/22 13:27:05;;;;;;;;;;;5.70;67.30;;;;;;5069266;28;19932;-73
2023/11/22 13:29:39;;;;;;;;;;;5.70;67.70;;;;;;5050201;28;19932;-74
2023/11/22 13:32:12;;;;;;;;;;;5.60;67.50;;;;;;5071554;28;19924;-74
2023/11/22 13:34:45;;;;;;;;;;;5.60;67.10;;;;;;5071737;28;20359;-61
2023/11/22 13:37:12;;;;;;;;;;;5.50;67.50;;;;;;5070550;28;19929;-61
2023/11/22 13:39:44;;;;;;;;;;;5.50;67.40;;;;;;5071438;28;19935;-62
2023/11/22 13:42:18;;;;;;;;;;;5.40;67.00;;;;;;5073855;28;19931;-62
2023/11/22 13:44:52;;;;;;;;;;;5.40;67.00;;;;;;5070591;28;19925;-62
2023/11/22 13:47:26;;;;;;;;;;;5.50;67.00;;;;;;5070171;28;19936;-61
2023/11/22 13:50:03;;;;;;;;;;;5.50;67.10;;;;;;5069274;28;19997;-62
2023/11/22 13:52:37;;;;;;;;;;;5.40;66.40;;;;;;5071169;28;19924;-62
2023/11/22 13:55:11;;;;;;;;;;;5.50;66.50;;;;;;5072818;28;19980;-61
2023/11/22 13:57:45;;;;;;;;;;;5.50;66.90;;;;;;5073122;28;19928;-62
2023/11/22 14:00:22;;;;;;;;;;;5.50;66.60;;;;;;5050951;28;19931;-62
2023/11/22 14:02:57;;;;;;;;;;;5.50;67.00;;;;;;5070581;28;19935;-62
2023/11/22 14:05:30;;;;;;;;;;;5.40;66.50;;;;;;5053527;28;20429;-62
2023/11/22 14:08:04;;;;;;;;;;;5.40;66.50;;;;;;5068986;28;20417;-62
2023/11/22 14:10:37;;;;;;;;;;;5.40;66.70;;;;;;5069712;28;19925;-61
2023/11/22 14:13:17;;;;;;;;;;;5.40;66.20;;;;;;5071086;28;19940;-62
2023/11/22 14:15:51;;;;;;;;;;;5.40;66.50;;;;;;5060305;28;19934;-62
2023/11/22 14:18:25;;;;;;;;;;;5.40;66.60;;;;;;5070474;28;19928;-62
2023/11/22 14:20:59;;;;;;;;;;;5.40;66.80;;;;;;5073261;28;20426;-61
2023/11/22 14:23:33;;;;;;;;;;;5.40;67.20;;;;;;5075057;28;19928;-61
2023/11/22 14:26:12;;;;;;;;;;;5.40;66.80;;;;;;5074741;28;20020;-62
2023/11/22 14:28:53;;;;;;;;;;;5.40;66.90;;;;;;5073145;28;19925;-62
2023/11/22 14:31:30;;;;;;;;;;;5.50;67.30;;;;;;5073808;28;19935;-63
2023/11/22 14:34:05;;;;;;;;;;;5.40;67.40;;;;;;5073921;28;19961;-62
2023/11/22 14:36:39;;;;;;;;;;;5.40;67.50;;;;;;5075377;28;19931;-61
2023/11/22 14:39:14;;;;;;;;;;;5.30;67.00;;;;;;5074855;28;19928;-62
2023/11/22 14:41:50;;;;;;;;;;;5.30;67.50;;;;;;5074669;28;19929;-61
2023/11/22 14:44:24;;;;;;;;;;;5.30;67.10;;;;;;5077467;28;19925;-66
2023/11/22 14:46:59;;;;;;;;;;;5.20;67.40;;;;;;5072723;28;20418;-66
2023/11/22 14:49:33;;;;;;;;;;;5.20;68.00;;;;;;5074554;28;19989;-67
2023/11/22 14:52:00;;;;;;;;;;;5.20;67.70;;;;;;5075698;28;19974;-66
2023/11/22 14:54:36;;;;;;;;;;;5.20;68.20;;;;;;5074048;28;19924;-65
2023/11/22 14:57:10;;;;;;;;;;;5.20;68.00;;;;;;5075385;28;20019;-67
2023/11/22 14:59:44;;;;;;;;;;;5.20;68.00;;;;;;5053014;28;19932;-65
2023/11/22 15:02:18;;;;;;;;;;;5.20;68.20;;;;;;5075382;28;19935;-64
2023/11/22 15:04:52;;;;;;;;;;;5.20;68.00;;;;;;5073545;28;19963;-66
2023/11/22 15:07:28;;;;;;;;;;;5.10;68.00;;;;;;5073626;28;19936;-66
2023/11/22 15:10:01;;;;;;;;;;;5.10;68.20;;;;;;5075386;28;20293;-66
2023/11/22 15:12:34;;;;;;;;;;;5.00;67.80;;;;;;5074501;28;20367;-66